Ocean City, New Jersey
Current Conditions -  °F | °C
As of 12:54 AM on Monday 26 Jan 2015 (Local Time) from KACY Reporting Station
Overcast Overcast  
Wind Chill: 27°   Ceiling: 4500
Heat Index: 36°   Visibility: 10mi
Dew Point: 25°   Wind: 15mph
Humidity: 64%   Direction: 50°NE
Pressure: 29.93"   Gusts: NA
Location:  39.28°N, 74.57°W
Report Text: KACY 260554Z AUTO 05013KT 10SM OVC045 02/M04 A2993 RMK AO2 SLP137 T00221039 10056 20022 50004 TSNO
Loading
Personal Weather Stations






























Interactive Weather Map New forecast layout! Learn more

10-Day Weather Forecast

Advertisements
Track Severe Weather on mobile